createdAt,value
2022-10-20T00:00:57.895Z,99003.41
2022-10-20T00:03:27.433Z,99002.19
2022-10-20T00:05:56.060Z,98998.00
2022-10-20T00:08:23.857Z,99003.63
2022-10-20T00:10:55.198Z,98998.78
2022-10-20T00:13:25.028Z,98997.44
2022-10-20T00:15:54.882Z,98998.13
2022-10-20T00:18:23.616Z,98985.31
2022-10-20T00:20:52.007Z,98980.53
2022-10-20T00:23:19.972Z,98978.06
2022-10-20T00:25:47.737Z,98979.19
2022-10-20T00:28:15.418Z,98986.81
2022-10-20T00:30:44.716Z,98982.44
2022-10-20T00:33:12.402Z,98988.63
2022-10-20T00:35:40.343Z,98984.84
2022-10-20T00:38:08.124Z,98984.63
2022-10-20T00:40:35.934Z,98975.56
2022-10-20T00:43:05.839Z,98983.47
2022-10-20T00:45:33.565Z,98990.09
2022-10-20T00:48:07.884Z,98992.44
2022-10-20T00:50:41.674Z,98982.34
2022-10-20T00:53:09.685Z,98987.53
2022-10-20T00:55:41.429Z,98986.63
2022-10-20T00:58:10.115Z,98972.34
2022-10-20T01:00:39.962Z,98963.34
2022-10-20T01:03:14.306Z,98960.91
2022-10-20T01:05:42.056Z,98945.47
2022-10-20T01:08:09.764Z,98935.34
2022-10-20T01:10:41.985Z,98937.50
2022-10-20T01:13:16.711Z,98937.25
2022-10-20T01:15:49.939Z,98928.94
2022-10-20T01:18:29.191Z,98929.38
2022-10-20T01:21:17.196Z,98922.28
2022-10-20T01:24:01.418Z,98934.59
2022-10-20T01:26:53.150Z,98917.47
2022-10-20T01:29:29.936Z,98922.50
2022-10-20T01:32:08.564Z,98918.81
2022-10-20T01:34:45.908Z,98919.50
2022-10-20T01:37:33.949Z,98915.59
2022-10-20T01:40:14.785Z,98903.59
2022-10-20T01:42:49.819Z,98909.41
2022-10-20T01:45:22.679Z,98909.88
2022-10-20T01:47:52.707Z,98905.22
2022-10-20T01:50:21.775Z,98899.47
2022-10-20T01:52:49.677Z,98902.66
2022-10-20T01:55:19.684Z,98893.78
2022-10-20T01:58:03.450Z,98893.22
2022-10-20T02:00:32.817Z,98886.88
2022-10-20T02:03:24.742Z,98888.56
2022-10-20T02:06:05.783Z,98879.88
2022-10-20T02:08:40.906Z,98883.88
2022-10-20T02:11:15.836Z,98878.03
2022-10-20T02:13:45.991Z,98886.25
2022-10-20T02:16:21.374Z,98881.75
2022-10-20T02:18:49.775Z,98871.84
2022-10-20T02:21:17.998Z,98872.16
2022-10-20T02:23:49.835Z,98872.19
2022-10-20T02:26:20.534Z,98876.72
2022-10-20T02:28:55.723Z,98874.47
2022-10-20T02:31:25.551Z,98864.94
2022-10-20T02:33:55.793Z,98857.09
2022-10-20T02:36:29.644Z,98860.41
2022-10-20T02:38:57.700Z,98848.47
2022-10-20T02:41:26.640Z,98856.06
2022-10-20T02:43:54.352Z,98855.47
2022-10-20T02:46:22.187Z,98847.97
2022-10-20T02:48:53.390Z,98850.03
2022-10-20T02:51:21.411Z,98846.97
2022-10-20T02:53:49.873Z,98847.63
2022-10-20T02:56:17.657Z,98851.22
2022-10-20T02:58:45.378Z,98855.31
2022-10-20T03:01:13.178Z,98854.78
2022-10-20T03:03:40.932Z,98855.63
2022-10-20T03:06:11.809Z,98855.06
2022-10-20T03:08:40.285Z,98856.81
2022-10-20T03:11:11.181Z,98854.97
2022-10-20T03:13:38.862Z,98855.97
2022-10-20T03:16:07.059Z,98852.41
2022-10-20T03:18:34.871Z,98843.13
2022-10-20T03:21:02.642Z,98847.53
2022-10-20T03:23:31.765Z,98850.28
2022-10-20T03:26:03.420Z,98853.31
2022-10-20T03:28:31.514Z,98854.84
2022-10-20T03:30:59.608Z,98850.38
2022-10-20T03:33:27.648Z,98844.59
2022-10-20T03:35:55.416Z,98844.47
2022-10-20T03:38:23.449Z,98846.13
2022-10-20T03:40:52.653Z,98848.69
2022-10-20T03:43:20.361Z,98855.16
2022-10-20T03:45:48.121Z,98848.34
2022-10-20T03:48:15.855Z,98846.03
2022-10-20T03:50:44.398Z,98846.16
2022-10-20T03:53:13.979Z,98843.03
2022-10-20T03:55:41.791Z,98836.50
2022-10-20T03:58:13.019Z,98829.66
2022-10-20T04:00:41.018Z,98834.00
2022-10-20T04:03:08.742Z,98838.75
2022-10-20T04:05:36.460Z,98827.88
2022-10-20T04:08:04.821Z,98820.59
2022-10-20T04:10:32.726Z,98825.59
2022-10-20T04:13:01.275Z,98828.78
2022-10-20T04:15:30.668Z,98828.19
2022-10-20T04:17:58.704Z,98817.63
2022-10-20T04:20:28.905Z,98822.06
2022-10-20T04:22:56.664Z,98821.16
2022-10-20T04:25:24.401Z,98807.81
2022-10-20T04:27:52.461Z,98810.16
2022-10-20T04:30:20.280Z,98812.66
2022-10-20T04:32:49.397Z,98810.31
2022-10-20T04:35:17.369Z,98811.75
2022-10-20T04:37:45.271Z,98821.72
2022-10-20T04:40:13.473Z,98814.81
2022-10-20T04:42:41.214Z,98810.91
2022-10-20T04:45:10.050Z,98806.69
2022-10-20T04:47:40.299Z,98806.06
2022-10-20T04:50:10.690Z,98806.06
2022-10-20T04:52:38.466Z,98799.63
2022-10-20T04:55:07.016Z,98796.97
2022-10-20T04:57:35.009Z,98793.56
2022-10-20T05:00:03.436Z,98789.84
2022-10-20T05:02:31.177Z,98788.00
2022-10-20T05:04:58.897Z,98798.19
2022-10-20T05:07:30.517Z,98790.97
2022-10-20T05:10:00.893Z,98797.03
2022-10-20T05:12:28.869Z,98788.09
2022-10-20T05:14:56.789Z,98784.53
2022-10-20T05:17:24.484Z,98772.75
2022-10-20T05:19:52.193Z,98769.25
2022-10-20T05:22:19.957Z,98762.72
2022-10-20T05:24:49.188Z,98761.28
2022-10-20T05:27:16.983Z,98760.09
2022-10-20T05:29:44.779Z,98752.44
2022-10-20T05:32:12.883Z,98753.06
2022-10-20T05:34:40.576Z,98755.25
2022-10-20T05:37:08.372Z,98748.41
2022-10-20T05:39:36.136Z,98748.88
2022-10-20T05:42:05.620Z,98745.06
2022-10-20T05:44:33.501Z,98745.00
2022-10-20T05:47:01.368Z,98749.53
2022-10-20T05:49:29.316Z,98745.69
2022-10-20T05:51:57.171Z,98744.09
2022-10-20T05:54:25.061Z,98741.25
2022-10-20T05:56:52.800Z,98738.25
2022-10-20T05:59:21.902Z,98745.69
2022-10-20T06:01:52.851Z,98734.72
2022-10-20T06:04:24.073Z,98732.41
2022-10-20T06:06:52.146Z,98728.44
2022-10-20T06:09:21.280Z,98731.50
2022-10-20T06:11:49.296Z,98732.25
2022-10-20T06:14:18.220Z,98736.16
2022-10-20T06:16:51.667Z,98741.09
2022-10-20T06:19:19.893Z,98741.63
2022-10-20T06:21:49.319Z,98750.75
2022-10-20T06:24:17.896Z,98745.84
2022-10-20T06:26:46.287Z,98744.88
2022-10-20T06:29:18.677Z,98747.44
2022-10-20T06:31:49.883Z,98749.22
2022-10-20T06:34:19.734Z,98750.50
2022-10-20T06:36:48.632Z,98754.13
2022-10-20T06:39:18.517Z,98750.75
2022-10-20T06:41:50.703Z,98752.88
2022-10-20T06:44:23.062Z,98743.16
2022-10-20T06:46:53.342Z,98751.91
2022-10-20T06:49:21.781Z,98755.22
2022-10-20T06:51:49.829Z,98765.03
2022-10-20T06:54:17.950Z,98764.84
2022-10-20T06:56:45.777Z,98767.81
2022-10-20T06:59:13.467Z,98758.22
2022-10-20T07:01:42.178Z,98759.63
2022-10-20T07:04:16.128Z,98771.84
2022-10-20T07:06:45.858Z,98765.81
2022-10-20T07:09:15.667Z,98771.69
2022-10-20T07:11:43.994Z,98763.88
2022-10-20T07:14:13.489Z,98762.09
2022-10-20T07:16:41.235Z,98766.16
2022-10-20T07:19:09.020Z,98763.16
2022-10-20T07:21:41.650Z,98758.41
2022-10-20T07:24:13.055Z,98745.09
2022-10-20T07:26:43.225Z,98748.44
2022-10-20T07:29:12.666Z,98753.28
2022-10-20T07:31:44.816Z,98755.59
2022-10-20T07:34:24.902Z,98754.25
2022-10-20T07:36:55.650Z,98755.47
2022-10-20T07:39:23.393Z,98756.00
2022-10-20T07:41:52.185Z,98763.28
2022-10-20T07:44:20.011Z,98755.38
2022-10-20T07:46:47.865Z,98748.50
2022-10-20T07:52:05.675Z,98752.84
2022-10-20T07:54:33.391Z,98753.28
2022-10-20T07:57:01.113Z,98754.44
2022-10-20T07:59:29.554Z,98755.81
2022-10-20T08:01:59.615Z,98752.28
2022-10-20T08:04:27.997Z,98740.75
2022-10-20T08:06:57.850Z,98730.56
2022-10-20T08:09:27.030Z,98734.66
2022-10-20T08:11:55.979Z,98736.53
2022-10-20T08:14:30.648Z,98742.50
2022-10-20T08:16:58.892Z,98750.88
2022-10-20T08:19:36.457Z,98741.34
2022-10-20T08:22:04.242Z,98736.34
2022-10-20T08:24:33.472Z,98737.09
2022-10-20T08:27:04.795Z,98722.75
2022-10-20T08:29:33.522Z,98719.75
2022-10-20T08:32:01.337Z,98722.09
2022-10-20T08:34:29.458Z,98715.91
2022-10-20T08:37:00.450Z,98714.16
2022-10-20T08:39:28.850Z,98719.16
2022-10-20T08:42:14.168Z,98710.81
2022-10-20T08:44:47.236Z,98719.78
2022-10-20T08:47:22.048Z,98734.19
2022-10-20T08:49:50.013Z,98736.19
2022-10-20T08:52:19.460Z,98731.56
2022-10-20T08:54:55.572Z,98728.25
2022-10-20T08:57:27.747Z,98731.50
2022-10-20T08:59:57.508Z,98733.84
2022-10-20T09:02:25.421Z,98735.25
2022-10-20T09:04:56.448Z,98740.66
2022-10-20T09:07:29.254Z,98746.34
2022-10-20T09:10:05.646Z,98732.72
2022-10-20T09:12:35.535Z,98733.00
2022-10-20T09:15:04.062Z,98737.72
2022-10-20T09:17:31.941Z,98735.66
2022-10-20T09:20:01.655Z,98742.84
2022-10-20T09:22:35.758Z,98740.28
2022-10-20T09:25:04.794Z,98720.59
2022-10-20T09:27:39.773Z,98728.81
2022-10-20T09:30:19.229Z,98731.53
2022-10-20T09:32:48.300Z,98733.81
2022-10-20T09:35:28.766Z,98728.16
2022-10-20T09:38:22.577Z,98733.09
2022-10-20T09:41:00.255Z,98740.56
2022-10-20T09:43:32.790Z,98736.59
2022-10-20T09:46:05.207Z,98731.25
2022-10-20T09:48:36.853Z,98738.81
2022-10-20T09:51:07.828Z,98744.03
2022-10-20T09:53:40.996Z,98762.56
2022-10-20T09:56:09.040Z,98750.34
2022-10-20T09:58:42.083Z,98748.28
2022-10-20T10:01:15.878Z,98746.41
2022-10-20T10:03:45.869Z,98757.44
2022-10-20T10:06:30.279Z,98736.66
2022-10-20T10:08:59.442Z,98755.28
2022-10-20T10:11:33.436Z,98749.94
2022-10-20T10:14:03.390Z,98747.78
2022-10-20T10:16:41.785Z,98745.03
2022-10-20T10:19:18.469Z,98754.75
2022-10-20T10:21:49.475Z,98745.41
2022-10-20T10:24:40.131Z,98737.63
2022-10-20T10:27:20.397Z,98733.31
2022-10-20T10:29:49.496Z,98750.16
2022-10-20T10:32:24.088Z,98740.25
2022-10-20T10:35:08.833Z,98743.56
2022-10-20T10:37:39.631Z,98747.44
2022-10-20T10:40:16.112Z,98749.28
2022-10-20T10:43:07.718Z,98753.75
2022-10-20T10:45:48.639Z,98747.31
2022-10-20T10:48:51.744Z,98754.69
2022-10-20T10:51:29.295Z,98755.19
2022-10-20T10:54:14.210Z,98743.44
2022-10-20T10:56:47.620Z,98735.19
2022-10-20T10:59:21.572Z,98730.31
2022-10-20T11:02:20.716Z,98723.38
2022-10-20T11:07:57.488Z,98714.38
2022-10-20T11:10:36.308Z,98708.56
2022-10-20T11:13:21.665Z,98699.94
2022-10-20T11:16:03.057Z,98703.38
2022-10-20T11:19:00.082Z,98704.81
2022-10-20T11:21:33.467Z,98713.84
2022-10-20T11:24:20.075Z,98708.19
2022-10-20T11:26:52.139Z,98707.03
2022-10-20T11:29:28.847Z,98687.25
2022-10-20T11:32:03.527Z,98691.38
2022-10-20T11:34:39.070Z,98683.16
2022-10-20T11:37:14.045Z,98709.31
2022-10-20T11:39:47.928Z,98669.84
2022-10-20T11:42:26.611Z,98680.34
2022-10-20T11:44:55.650Z,98687.22
2022-10-20T11:47:31.235Z,98682.16
2022-10-20T11:50:01.063Z,98678.97
2022-10-20T11:52:55.497Z,98693.06
2022-10-20T11:55:40.984Z,98676.63
2022-10-20T11:58:35.701Z,98654.09
2022-10-20T12:01:26.355Z,98643.00
2022-10-20T12:04:17.330Z,98641.06
2022-10-20T12:07:12.217Z,98654.34
2022-10-20T12:09:54.313Z,98659.69
2022-10-20T12:12:30.188Z,98657.78
2022-10-20T12:15:02.369Z,98649.31
2022-10-20T12:17:36.506Z,98644.94
2022-10-20T12:20:41.540Z,98630.34
2022-10-20T12:23:51.645Z,98632.41
2022-10-20T12:26:42.451Z,98627.88
2022-10-20T12:29:52.091Z,98637.84
2022-10-20T12:33:07.583Z,98637.06
2022-10-20T12:36:03.360Z,98630.72
2022-10-20T12:38:34.617Z,98627.94
2022-10-20T12:41:03.479Z,98618.47
2022-10-20T12:43:37.802Z,98621.91
2022-10-20T12:46:13.169Z,98619.13
2022-10-20T12:48:47.942Z,98627.69
2022-10-20T12:51:27.339Z,98634.59
2022-10-20T12:54:02.201Z,98632.13
2022-10-20T12:56:37.577Z,98635.63
2022-10-20T12:59:23.343Z,98634.72
2022-10-20T13:02:29.887Z,98628.16
2022-10-20T13:05:02.859Z,98642.59
2022-10-20T13:08:01.245Z,98624.13
2022-10-20T13:10:35.178Z,98620.75
2022-10-20T13:13:37.867Z,98596.81
2022-10-20T13:16:12.395Z,98604.50
2022-10-20T13:18:49.699Z,98575.09
2022-10-20T13:21:32.372Z,98577.59
2022-10-20T13:24:05.620Z,98575.00
2022-10-20T13:26:40.096Z,98567.91
2022-10-20T13:29:14.336Z,98572.00
2022-10-20T13:31:51.798Z,98579.44
2022-10-20T13:34:26.005Z,98586.47
2022-10-20T13:37:07.335Z,98582.41
2022-10-20T13:39:43.357Z,98587.47
2022-10-20T13:42:24.301Z,98578.13
2022-10-20T13:45:01.139Z,98584.72
2022-10-20T13:47:46.323Z,98608.38
2022-10-20T13:52:56.149Z,98612.44
2022-10-20T13:55:26.390Z,98618.28
2022-10-20T13:57:57.811Z,98609.91
2022-10-20T14:00:28.018Z,98612.75
2022-10-20T14:03:02.679Z,98607.81
2022-10-20T14:05:37.206Z,98600.47
2022-10-20T14:08:09.352Z,98603.84
2022-10-20T14:10:44.680Z,98594.16
2022-10-20T14:13:18.825Z,98589.81
2022-10-20T14:15:49.480Z,98589.44
2022-10-20T14:18:26.133Z,98597.19
2022-10-20T14:21:01.116Z,98593.47
2022-10-20T14:23:32.701Z,98582.41
2022-10-20T14:26:01.329Z,98587.94
2022-10-20T14:28:33.642Z,98596.88
2022-10-20T14:31:02.146Z,98595.31
2022-10-20T14:33:31.203Z,98586.13
2022-10-20T14:36:02.576Z,98574.41
2022-10-20T14:38:35.357Z,98572.06
2022-10-20T14:41:03.288Z,98569.91
2022-10-20T14:43:39.988Z,98566.72
2022-10-20T14:46:10.964Z,98558.91
2022-10-20T14:48:42.354Z,98556.16
2022-10-20T14:51:30.923Z,98550.66
2022-10-20T14:54:26.629Z,98555.75
2022-10-20T14:56:56.336Z,98551.94
2022-10-20T14:59:27.618Z,98560.00
2022-10-20T15:02:04.871Z,98574.34
2022-10-20T15:04:36.449Z,98575.53
2022-10-20T15:07:07.019Z,98555.56
2022-10-20T15:09:40.730Z,98565.09
2022-10-20T15:12:16.245Z,98561.63
2022-10-20T15:14:48.214Z,98559.16
2022-10-20T15:17:37.254Z,98552.13
2022-10-20T15:20:32.215Z,98551.69
2022-10-20T15:23:01.903Z,98572.56
2022-10-20T15:25:31.951Z,98575.66
2022-10-20T15:28:00.648Z,98575.91
2022-10-20T15:30:30.827Z,98574.28
2022-10-20T15:32:59.096Z,98570.88
2022-10-20T15:35:30.646Z,98570.25
2022-10-20T15:37:58.397Z,98563.00
2022-10-20T15:40:26.157Z,98565.41
2022-10-20T15:42:53.946Z,98569.53
2022-10-20T15:45:23.901Z,98552.66
2022-10-20T15:47:53.310Z,98556.81
2022-10-20T15:50:23.000Z,98550.13
2022-10-20T15:52:54.126Z,98540.59
2022-10-20T15:55:24.911Z,98536.72
2022-10-20T15:57:54.101Z,98561.78
2022-10-20T16:00:23.756Z,98562.56
2022-10-20T16:02:53.661Z,98554.50
2022-10-20T16:05:24.299Z,98548.75
2022-10-20T16:07:54.118Z,98557.13
2022-10-20T16:10:22.778Z,98553.44
2022-10-20T16:12:50.750Z,98537.75
2022-10-20T16:15:19.613Z,98546.91
2022-10-20T16:20:22.039Z,98546.59
2022-10-20T16:22:50.046Z,98554.94
2022-10-20T16:25:18.056Z,98557.63
2022-10-20T16:27:45.804Z,98564.84
2022-10-20T16:30:16.558Z,98562.38
2022-10-20T16:32:44.340Z,98556.84
2022-10-20T16:35:12.164Z,98550.50
2022-10-20T16:37:41.184Z,98552.75
2022-10-20T16:40:09.770Z,98557.09
2022-10-20T16:42:37.446Z,98550.88
2022-10-20T16:45:06.536Z,98550.75
2022-10-20T16:47:34.479Z,98558.81
2022-10-20T16:50:05.424Z,98556.56
2022-10-20T16:52:33.769Z,98548.56
2022-10-20T16:55:03.092Z,98539.53
2022-10-20T16:57:38.159Z,98537.22
2022-10-20T17:00:08.433Z,98551.88
2022-10-20T17:02:36.695Z,98563.13
2022-10-20T17:05:08.223Z,98555.25
2022-10-20T17:07:37.581Z,98512.84
2022-10-20T17:10:08.172Z,98512.13
2022-10-20T17:12:35.923Z,98516.66
2022-10-20T17:15:06.322Z,98517.63
2022-10-20T17:17:34.219Z,98506.28
2022-10-20T17:20:02.151Z,98506.63
2022-10-20T17:22:32.698Z,98525.88
2022-10-20T17:25:00.493Z,98529.09
2022-10-20T17:27:29.564Z,98528.19
2022-10-20T17:29:57.281Z,98527.06
2022-10-20T17:32:25.093Z,98526.50
2022-10-20T17:34:52.774Z,98514.97
2022-10-20T17:37:20.462Z,98503.91
2022-10-20T17:39:48.152Z,98491.09
2022-10-20T17:42:15.889Z,98513.38
2022-10-20T17:44:45.023Z,98515.34
2022-10-20T17:47:12.768Z,98517.63
2022-10-20T17:49:40.533Z,98520.78
2022-10-20T17:52:08.268Z,98530.53
2022-10-20T17:54:36.688Z,98533.53
2022-10-20T17:57:04.482Z,98552.13
2022-10-20T17:59:38.242Z,98570.47
2022-10-20T18:02:16.646Z,98577.19
2022-10-20T18:04:44.331Z,98579.78
2022-10-20T18:07:12.106Z,98579.00
2022-10-20T18:09:40.038Z,98579.19
2022-10-20T18:12:07.843Z,98571.06
2022-10-20T18:14:35.758Z,98576.06
2022-10-20T18:17:03.506Z,98571.50
2022-10-20T18:19:32.723Z,98582.59
2022-10-20T18:22:03.278Z,98583.63
2022-10-20T18:24:31.077Z,98578.44
2022-10-20T18:26:59.196Z,98576.16
2022-10-20T18:29:27.155Z,98593.38
2022-10-20T18:31:54.985Z,98592.41
2022-10-20T18:34:22.736Z,98589.19
2022-10-20T18:36:52.527Z,98585.28
2022-10-20T18:39:20.386Z,98573.44
2022-10-20T18:41:54.412Z,98575.50
2022-10-20T18:44:23.837Z,98575.31
2022-10-20T18:46:56.186Z,98568.69
2022-10-20T18:49:24.631Z,98571.25
2022-10-20T18:51:53.735Z,98547.22
2022-10-20T18:54:23.617Z,98561.13
2022-10-20T18:56:51.326Z,98570.03
2022-10-20T18:59:22.774Z,98573.81
2022-10-20T19:01:50.546Z,98552.94
2022-10-20T19:04:18.345Z,98545.19
2022-10-20T19:06:47.978Z,98549.78
2022-10-20T19:09:19.085Z,98552.75
2022-10-20T19:11:47.976Z,98537.03
2022-10-20T19:14:16.387Z,98537.09
2022-10-20T19:16:46.187Z,98534.44
2022-10-20T19:19:15.111Z,98522.09
2022-10-20T19:21:43.147Z,98511.22
2022-10-20T19:24:14.528Z,98519.75
2022-10-20T19:26:56.910Z,98527.50
2022-10-20T19:29:36.363Z,98530.69
2022-10-20T19:32:05.805Z,98533.78
2022-10-20T19:34:35.995Z,98534.94
2022-10-20T19:37:04.967Z,98534.13
2022-10-20T19:39:34.744Z,98536.72
2022-10-20T19:42:05.498Z,98529.31
2022-10-20T19:44:33.763Z,98535.97
2022-10-20T19:47:01.694Z,98536.69
2022-10-20T19:49:29.473Z,98522.56
2022-10-20T19:51:57.189Z,98509.06
2022-10-20T19:54:25.268Z,98518.19
2022-10-20T19:56:53.137Z,98541.19
2022-10-20T19:59:22.374Z,98534.72
2022-10-20T20:01:52.284Z,98542.47
2022-10-20T20:04:20.576Z,98535.16
2022-10-20T20:06:48.626Z,98529.50
2022-10-20T20:09:16.510Z,98517.44
2022-10-20T20:11:45.085Z,98490.50
2022-10-20T20:14:16.011Z,98487.56
2022-10-20T20:16:46.836Z,98502.47
2022-10-20T20:19:16.480Z,98510.13
2022-10-20T20:21:44.695Z,98501.66
2022-10-20T20:24:14.016Z,98505.19
2022-10-20T20:26:44.537Z,98511.59
2022-10-20T20:29:12.471Z,98515.38
2022-10-20T20:31:40.193Z,98518.09
2022-10-20T20:34:09.383Z,98516.75
2022-10-20T20:36:39.291Z,98511.91
2022-10-20T20:39:07.503Z,98508.47
2022-10-20T20:41:35.465Z,98514.09
2022-10-20T20:44:08.428Z,98508.84
2022-10-20T20:46:38.977Z,98508.13
2022-10-20T20:49:06.778Z,98517.72
2022-10-20T20:51:35.829Z,98515.69
2022-10-20T20:54:04.289Z,98522.59
2022-10-20T20:56:32.508Z,98526.69
2022-10-20T20:59:00.372Z,98537.00
2022-10-20T21:01:31.536Z,98530.72
2022-10-20T21:04:03.663Z,98524.38
2022-10-20T21:06:38.024Z,98534.81
2022-10-20T21:09:18.947Z,98529.06
2022-10-20T21:11:48.758Z,98536.41
2022-10-20T21:14:16.800Z,98537.28
2022-10-20T21:16:44.524Z,98543.84
2022-10-20T21:19:12.350Z,98559.75
2022-10-20T21:21:44.369Z,98551.19
2022-10-20T21:24:14.854Z,98529.72
2022-10-20T21:26:44.893Z,98522.38
2022-10-20T21:29:12.616Z,98521.44
2022-10-20T21:31:42.439Z,98511.03
2022-10-20T21:34:12.887Z,98497.50
2022-10-20T21:36:41.058Z,98492.91
2022-10-20T21:39:12.803Z,98493.69
2022-10-20T21:41:41.738Z,98503.13
2022-10-20T21:44:14.711Z,98488.38
2022-10-20T21:46:47.228Z,98496.53
2022-10-20T21:49:16.702Z,98495.84
2022-10-20T21:51:46.596Z,98485.25
2022-10-20T21:54:16.148Z,98496.50
2022-10-20T21:56:46.786Z,98499.13
2022-10-20T21:59:19.400Z,98501.00
2022-10-20T22:01:47.437Z,98510.47
2022-10-20T22:04:15.698Z,98493.22
2022-10-20T22:06:43.693Z,98483.22
2022-10-20T22:09:13.074Z,98489.41
2022-10-20T22:11:43.836Z,98482.91
2022-10-20T22:14:12.014Z,98470.19
2022-10-20T22:16:43.191Z,98470.66
2022-10-20T22:19:14.700Z,98477.72
2022-10-20T22:21:45.213Z,98481.81
2022-10-20T22:24:13.939Z,98483.78
2022-10-20T22:26:44.201Z,98493.53
2022-10-20T22:29:12.474Z,98486.69
2022-10-20T22:31:41.848Z,98464.53
2022-10-20T22:34:10.840Z,98466.06
2022-10-20T22:36:39.366Z,98455.56
2022-10-20T22:39:07.586Z,98448.28
2022-10-20T22:41:35.609Z,98432.88
2022-10-20T22:44:03.380Z,98430.94
2022-10-20T22:46:31.152Z,98439.38
2022-10-20T22:49:00.364Z,98437.34
2022-10-20T22:51:28.180Z,98441.53
2022-10-20T22:53:55.925Z,98441.03
2022-10-20T22:56:24.153Z,98434.72
2022-10-20T22:58:54.322Z,98435.75
2022-10-20T23:01:23.675Z,98446.22
2022-10-20T23:03:51.853Z,98450.81
2022-10-20T23:06:23.157Z,98447.97
2022-10-20T23:08:53.268Z,98444.81
2022-10-20T23:11:21.748Z,98439.72
2022-10-20T23:13:50.913Z,98438.84
2022-10-20T23:16:19.311Z,98436.72
2022-10-20T23:18:47.182Z,98438.53
2022-10-20T23:21:15.370Z,98440.56
2022-10-20T23:23:45.293Z,98438.41
2022-10-20T23:26:13.919Z,98444.72
2022-10-20T23:28:41.749Z,98447.09
2022-10-20T23:31:11.382Z,98435.19
2022-10-20T23:33:43.165Z,98432.16
2022-10-20T23:36:11.693Z,98434.91
2022-10-20T23:38:41.751Z,98429.88
2022-10-20T23:41:11.415Z,98429.41
2022-10-20T23:43:41.476Z,98433.13
2022-10-20T23:46:10.024Z,98424.97
2022-10-20T23:48:37.979Z,98429.94
2022-10-20T23:51:06.758Z,98425.75
2022-10-20T23:53:35.421Z,98429.22
2022-10-20T23:56:03.166Z,98434.91
2022-10-20T23:58:32.464Z,98436.56
